sensor_id;sensor_type;location;lat;lon;timestamp;pressure;altitude;pressure_sealevel;temperature;humidity
4123;BME280;2075;51.062;6.920;2023-03-04T00:01:15;77255.84;;;-144.48;100.00
4123;BME280;2075;51.062;6.920;2023-03-04T00:04:01;78390.19;;;-144.48;100.00
4123;BME280;2075;51.062;6.920;2023-03-04T00:06:46;78511.53;;;-144.48;100.00
4123;BME280;2075;51.062;6.920;2023-03-04T00:09:31;82176.06;;;-144.48;100.00
4123;BME280;2075;51.062;6.920;2023-03-04T00:12:18;81267.16;;;-144.48;100.00
4123;BME280;2075;51.062;6.920;2023-03-04T00:15:04;80297.78;;;-144.48;100.00
4123;BME280;2075;51.062;6.920;2023-03-04T00:17:50;82441.31;;;-144.48;100.00
4123;BME280;2075;51.062;6.920;2023-03-04T00:20:35;83433.56;;;-144.48;100.00
4123;BME280;2075;51.062;6.920;2023-03-04T00:23:20;82502.03;;;-144.48;100.00
4123;BME280;2075;51.062;6.920;2023-03-04T00:26:06;86146.50;;;-144.48;100.00
4123;BME280;2075;51.062;6.920;2023-03-04T00:28:54;87186.47;;;-144.48;100.00
4123;BME280;2075;51.062;6.920;2023-03-04T00:31:39;84134.38;;;-144.48;100.00
4123;BME280;2075;51.062;6.920;2023-03-04T00:34:25;83664.44;;;-144.48;100.00
4123;BME280;2075;51.062;6.920;2023-03-04T00:37:10;84963.00;;;-144.48;100.00
4123;BME280;2075;51.062;6.920;2023-03-04T00:39:56;87784.63;;;-144.48;100.00
4123;BME280;2075;51.062;6.920;2023-03-04T00:42:41;90708.00;;;-144.48;100.00
4123;BME280;2075;51.062;6.920;2023-03-04T00:45:28;92015.28;;;-144.48;100.00
4123;BME280;2075;51.062;6.920;2023-03-04T00:48:14;92149.28;;;-144.48;100.00
4123;BME280;2075;51.062;6.920;2023-03-04T00:50:59;93122.00;;;-144.48;100.00
4123;BME280;2075;51.062;6.920;2023-03-04T00:53:45;93292.59;;;-144.48;100.00
4123;BME280;2075;51.062;6.920;2023-03-04T00:56:30;93684.63;;;-144.48;100.00
4123;BME280;2075;51.062;6.920;2023-03-04T00:59:15;93749.63;;;-144.48;100.00
4123;BME280;2075;51.062;6.920;2023-03-04T01:02:02;93526.19;;;-144.48;100.00
4123;BME280;2075;51.062;6.920;2023-03-04T01:04:47;93314.94;;;-144.48;100.00
4123;BME280;2075;51.062;6.920;2023-03-04T01:07:32;91138.28;;;-144.48;100.00
4123;BME280;2075;51.062;6.920;2023-03-04T01:10:18;86270.16;;;-144.48;100.00
4123;BME280;2075;51.062;6.920;2023-03-04T01:13:03;85007.56;;;-144.48;100.00
4123;BME280;2075;51.062;6.920;2023-03-04T01:15:48;81734.75;;;-144.48;100.00
4123;BME280;2075;51.062;6.920;2023-03-04T01:18:35;83488.25;;;-144.48;100.00
4123;BME280;2075;51.062;6.920;2023-03-04T01:21:21;84790.78;;;-144.48;100.00
4123;BME280;2075;51.062;6.920;2023-03-04T01:24:07;89717.72;;;-144.48;100.00
4123;BME280;2075;51.062;6.920;2023-03-04T01:26:52;91016.50;;;-144.48;100.00
4123;BME280;2075;51.062;6.920;2023-03-04T01:29:39;90740.47;;;-144.48;100.00
4123;BME280;2075;51.062;6.920;2023-03-04T01:32:25;90184.41;;;-144.48;100.00
4123;BME280;2075;51.062;6.920;2023-03-04T01:35:11;90807.44;;;-144.48;100.00
4123;BME280;2075;51.062;6.920;2023-03-04T01:37:57;91871.13;;;-144.48;100.00
4123;BME280;2075;51.062;6.920;2023-03-04T01:40:42;91696.53;;;-144.48;100.00
4123;BME280;2075;51.062;6.920;2023-03-04T01:43:29;92100.56;;;-144.48;100.00
4123;BME280;2075;51.062;6.920;2023-03-04T01:46:14;92124.94;;;-144.48;100.00
4123;BME280;2075;51.062;6.920;2023-03-04T01:49:00;92240.66;;;-144.48;100.00
4123;BME280;2075;51.062;6.920;2023-03-04T01:51:50;93187.00;;;-144.48;100.00
4123;BME280;2075;51.062;6.920;2023-03-04T01:54:37;93408.38;;;-144.48;100.00
4123;BME280;2075;51.062;6.920;2023-03-04T01:57:23;93054.97;;;-144.48;100.00
4123;BME280;2075;51.062;6.920;2023-03-04T02:00:17;92902.66;;;-144.48;100.00
4123;BME280;2075;51.062;6.920;2023-03-04T02:03:05;92969.69;;;-144.48;100.00
4123;BME280;2075;51.062;6.920;2023-03-04T02:05:52;93254.03;;;-144.48;100.00
4123;BME280;2075;51.062;6.920;2023-03-04T02:08:39;93633.84;;;-144.48;100.00
4123;BME280;2075;51.062;6.920;2023-03-04T02:11:24;93516.03;;;-144.48;100.00
4123;BME280;2075;51.062;6.920;2023-03-04T02:14:11;93335.25;;;-144.48;100.00
4123;BME280;2075;51.062;6.920;2023-03-04T02:16:57;93152.47;;;-144.48;100.00
4123;BME280;2075;51.062;6.920;2023-03-04T02:19:47;93394.16;;;-144.48;100.00
4123;BME280;2075;51.062;6.920;2023-03-04T02:22:39;93371.81;;;-144.48;100.00
4123;BME280;2075;51.062;6.920;2023-03-04T02:25:32;93467.28;;;-144.48;100.00
4123;BME280;2075;51.062;6.920;2023-03-04T02:28:21;93727.28;;;-144.48;100.00
4123;BME280;2075;51.062;6.920;2023-03-04T02:31:15;93776.03;;;-144.48;100.00
4123;BME280;2075;51.062;6.920;2023-03-04T02:34:05;94119.34;;;-144.48;100.00
4123;BME280;2075;51.062;6.920;2023-03-04T02:36:53;94225.00;;;-144.48;100.00
4123;BME280;2075;51.062;6.920;2023-03-04T02:39:41;94231.09;;;-144.48;100.00
4123;BME280;2075;51.062;6.920;2023-03-04T02:42:28;94237.19;;;-144.48;100.00
4123;BME280;2075;51.062;6.920;2023-03-04T02:45:34;94257.50;;;-144.48;100.00
4123;BME280;2075;51.062;6.920;2023-03-04T02:48:22;94292.03;;;-144.48;100.00
4123;BME280;2075;51.062;6.920;2023-03-04T02:51:08;94346.91;;;-144.48;100.00
4123;BME280;2075;51.062;6.920;2023-03-04T02:53:53;94420.03;;;-144.48;100.00
4123;BME280;2075;51.062;6.920;2023-03-04T02:56:44;94379.41;;;-144.48;100.00
4123;BME280;2075;51.062;6.920;2023-03-04T02:59:29;94454.59;;;-144.48;100.00
4123;BME280;2075;51.062;6.920;2023-03-04T03:02:16;94448.50;;;-144.48;100.00
4123;BME280;2075;51.062;6.920;2023-03-04T03:05:02;94399.72;;;-144.48;100.00
4123;BME280;2075;51.062;6.920;2023-03-04T03:07:47;94350.97;;;-144.48;100.00
4123;BME280;2075;51.062;6.920;2023-03-04T03:10:32;94409.88;;;-144.48;100.00
4123;BME280;2075;51.062;6.920;2023-03-04T03:13:19;94383.47;;;-144.48;100.00
4123;BME280;2075;51.062;6.920;2023-03-04T03:16:04;94399.72;;;-144.48;100.00
4123;BME280;2075;51.062;6.920;2023-03-04T03:18:51;94350.97;;;-144.48;100.00
4123;BME280;2075;51.062;6.920;2023-03-04T03:21:37;94363.16;;;-144.48;100.00
4123;BME280;2075;51.062;6.920;2023-03-04T03:24:23;94330.66;;;-144.48;100.00
4123;BME280;2075;51.062;6.920;2023-03-04T03:27:08;94285.94;;;-144.48;100.00
4123;BME280;2075;51.062;6.920;2023-03-04T03:29:54;94322.53;;;-144.48;100.00
4123;BME280;2075;51.062;6.920;2023-03-04T03:32:39;94357.06;;;-144.48;100.00
4123;BME280;2075;51.062;6.920;2023-03-04T03:35:26;94318.47;;;-144.48;100.00
4123;BME280;2075;51.062;6.920;2023-03-04T03:38:11;94330.66;;;-144.48;100.00
4123;BME280;2075;51.062;6.920;2023-03-04T03:40:57;94338.78;;;-144.48;100.00
4123;BME280;2075;51.062;6.920;2023-03-04T03:43:42;94314.41;;;-144.48;100.00
4123;BME280;2075;51.062;6.920;2023-03-04T03:46:27;94363.16;;;-144.48;100.00
4123;BME280;2075;51.062;6.920;2023-03-04T03:49:13;94369.25;;;-144.48;100.00
4123;BME280;2075;51.062;6.920;2023-03-04T03:52:01;94375.34;;;-144.48;100.00
4123;BME280;2075;51.062;6.920;2023-03-04T03:54:46;94462.72;;;-144.48;100.00
4123;BME280;2075;51.062;6.920;2023-03-04T03:57:32;94357.06;;;-144.48;100.00
4123;BME280;2075;51.062;6.920;2023-03-04T04:00:18;94281.88;;;-144.48;100.00
4123;BME280;2075;51.062;6.920;2023-03-04T04:03:04;94172.19;;;-144.48;100.00
4123;BME280;2075;51.062;6.920;2023-03-04T04:05:49;93861.34;;;-144.48;100.00
4123;BME280;2075;51.062;6.920;2023-03-04T04:08:36;93843.06;;;-144.48;100.00
4123;BME280;2075;51.062;6.920;2023-03-04T04:11:21;93977.16;;;-144.48;100.00
4123;BME280;2075;51.062;6.920;2023-03-04T04:14:08;94054.34;;;-144.48;100.00
4123;BME280;2075;51.062;6.920;2023-03-04T04:16:55;94149.84;;;-144.48;100.00
4123;BME280;2075;51.062;6.920;2023-03-04T04:19:40;94088.88;;;-144.48;100.00
4123;BME280;2075;51.062;6.920;2023-03-04T04:22:26;94208.75;;;-144.48;100.00
4123;BME280;2075;51.062;6.920;2023-03-04T04:25:12;94198.59;;;-144.48;100.00
4123;BME280;2075;51.062;6.920;2023-03-04T04:27:58;94210.78;;;-144.48;100.00
4123;BME280;2075;51.062;6.920;2023-03-04T04:30:43;94243.28;;;-144.48;100.00
4123;BME280;2075;51.062;6.920;2023-03-04T04:33:28;94206.72;;;-144.48;100.00
4123;BME280;2075;51.062;6.920;2023-03-04T04:36:14;94275.78;;;-144.48;100.00
4123;BME280;2075;51.062;6.920;2023-03-04T04:39:00;94306.28;;;-144.48;100.00
4123;BME280;2075;51.062;6.920;2023-03-04T04:41:47;94379.41;;;-144.48;100.00
4123;BME280;2075;51.062;6.920;2023-03-04T04:44:32;94513.50;;;-144.48;100.00
4123;BME280;2075;51.062;6.920;2023-03-04T04:47:18;94342.84;;;-144.48;100.00
4123;BME280;2075;51.062;6.920;2023-03-04T04:50:04;94334.72;;;-144.48;100.00
4123;BME280;2075;51.062;6.920;2023-03-04T04:52:49;94019.81;;;-144.48;100.00
4123;BME280;2075;51.062;6.920;2023-03-04T04:55:34;94038.09;;;-144.48;100.00
4123;BME280;2075;51.062;6.920;2023-03-04T04:58:21;93952.78;;;-144.48;100.00
4123;BME280;2075;51.062;6.920;2023-03-04T05:01:07;93936.53;;;-144.48;100.00
4123;BME280;2075;51.062;6.920;2023-03-04T05:03:52;93855.25;;;-144.48;100.00
4123;BME280;2075;51.062;6.920;2023-03-04T05:06:39;93960.91;;;-144.48;100.00
4123;BME280;2075;51.062;6.920;2023-03-04T05:09:24;93664.31;;;-144.48;100.00
4123;BME280;2075;51.062;6.920;2023-03-04T05:12:09;93367.75;;;-144.48;100.00
4123;BME280;2075;51.062;6.920;2023-03-04T05:14:56;93331.19;;;-144.48;100.00
4123;BME280;2075;51.062;6.920;2023-03-04T05:17:42;93918.25;;;-144.48;100.00
4123;BME280;2075;51.062;6.920;2023-03-04T05:20:27;94202.66;;;-144.48;100.00
4123;BME280;2075;51.062;6.920;2023-03-04T05:23:12;94287.97;;;-144.48;100.00
4123;BME280;2075;51.062;6.920;2023-03-04T05:25:58;94428.16;;;-144.48;100.00
4123;BME280;2075;51.062;6.920;2023-03-04T05:28:44;94403.78;;;-144.48;100.00
4123;BME280;2075;51.062;6.920;2023-03-04T05:31:30;94379.41;;;-144.48;100.00
4123;BME280;2075;51.062;6.920;2023-03-04T05:34:16;94391.59;;;-144.48;100.00
4123;BME280;2075;51.062;6.920;2023-03-04T05:37:01;94472.88;;;-144.48;100.00
4123;BME280;2075;51.062;6.920;2023-03-04T05:39:46;94418.00;;;-144.48;100.00
4123;BME280;2075;51.062;6.920;2023-03-04T05:42:32;94440.38;;;-144.48;100.00
4123;BME280;2075;51.062;6.920;2023-03-04T05:45:17;94409.88;;;-144.48;100.00
4123;BME280;2075;51.062;6.920;2023-03-04T05:48:04;94448.50;;;-144.48;100.00
4123;BME280;2075;51.062;6.920;2023-03-04T05:50:52;94422.06;;;-144.48;100.00
4123;BME280;2075;51.062;6.920;2023-03-04T05:53:40;94424.09;;;-144.48;100.00
4123;BME280;2075;51.062;6.920;2023-03-04T05:56:25;94415.97;;;-144.48;100.00
4123;BME280;2075;51.062;6.920;2023-03-04T05:59:11;94436.31;;;-144.48;100.00
4123;BME280;2075;51.062;6.920;2023-03-04T06:01:56;94401.75;;;-144.48;100.00
4123;BME280;2075;51.062;6.920;2023-03-04T06:04:43;94324.56;;;-144.48;100.00
4123;BME280;2075;51.062;6.920;2023-03-04T06:07:29;94373.31;;;-144.48;100.00
4123;BME280;2075;51.062;6.920;2023-03-04T06:10:15;94326.59;;;-144.48;100.00
4123;BME280;2075;51.062;6.920;2023-03-04T06:13:01;94259.53;;;-144.48;100.00
4123;BME280;2075;51.062;6.920;2023-03-04T06:15:46;94151.88;;;-144.48;100.00
4123;BME280;2075;51.062;6.920;2023-03-04T06:18:31;94233.13;;;-144.48;100.00
4123;BME280;2075;51.062;6.920;2023-03-04T06:21:18;94316.44;;;-144.48;100.00
4123;BME280;2075;51.062;6.920;2023-03-04T06:24:04;94287.97;;;-144.48;100.00
4123;BME280;2075;51.062;6.920;2023-03-04T06:26:49;94334.72;;;-144.48;100.00
4123;BME280;2075;51.062;6.920;2023-03-04T06:29:35;94350.97;;;-144.48;100.00
4123;BME280;2075;51.062;6.920;2023-03-04T06:32:20;94306.28;;;-144.48;100.00
4123;BME280;2075;51.062;6.920;2023-03-04T06:35:06;94253.44;;;-144.48;100.00
4123;BME280;2075;51.062;6.920;2023-03-04T06:37:53;94285.94;;;-144.48;100.00
4123;BME280;2075;51.062;6.920;2023-03-04T06:40:38;94348.94;;;-144.48;100.00
4123;BME280;2075;51.062;6.920;2023-03-04T06:43:23;94294.09;;;-144.48;100.00
4123;BME280;2075;51.062;6.920;2023-03-04T06:46:09;94306.28;;;-144.48;100.00
4123;BME280;2075;51.062;6.920;2023-03-04T06:48:55;94365.19;;;-144.48;100.00
4123;BME280;2075;51.062;6.920;2023-03-04T06:51:40;94350.97;;;-144.48;100.00
4123;BME280;2075;51.062;6.920;2023-03-04T06:54:27;94308.31;;;-144.48;100.00
4123;BME280;2075;51.062;6.920;2023-03-04T06:57:12;94318.47;;;-144.48;100.00
4123;BME280;2075;51.062;6.920;2023-03-04T06:59:58;94261.56;;;-144.48;100.00
4123;BME280;2075;51.062;6.920;2023-03-04T07:02:43;94279.84;;;-144.48;100.00
4123;BME280;2075;51.062;6.920;2023-03-04T07:05:29;94269.69;;;-144.48;100.00
4123;BME280;2075;51.062;6.920;2023-03-04T07:08:14;94277.81;;;-144.48;100.00
4123;BME280;2075;51.062;6.920;2023-03-04T07:11:01;94326.59;;;-144.48;100.00
4123;BME280;2075;51.062;6.920;2023-03-04T07:13:46;94342.84;;;-144.48;100.00
4123;BME280;2075;51.062;6.920;2023-03-04T07:16:32;94428.16;;;-144.48;100.00
4123;BME280;2075;51.062;6.920;2023-03-04T07:19:17;94424.09;;;-144.48;100.00
4123;BME280;2075;51.062;6.920;2023-03-04T07:22:02;94432.25;;;-144.48;100.00
4123;BME280;2075;51.062;6.920;2023-03-04T07:24:48;94472.88;;;-144.48;100.00
4123;BME280;2075;51.062;6.920;2023-03-04T07:27:34;94472.88;;;-144.48;100.00
4123;BME280;2075;51.062;6.920;2023-03-04T07:30:21;94529.75;;;-144.48;99.03
4123;BME280;2075;51.062;6.920;2023-03-04T07:33:07;94546.03;;;-144.48;99.03
4123;BME280;2075;51.062;6.920;2023-03-04T07:35:57;94541.94;;;-144.48;98.47
4123;BME280;2075;51.062;6.920;2023-03-04T07:38:43;94381.44;;;-144.48;98.79
4123;BME280;2075;51.062;6.920;2023-03-04T07:41:29;94596.81;;;-144.48;98.32
4123;BME280;2075;51.062;6.920;2023-03-04T07:44:15;94558.22;;;-144.48;98.24
4123;BME280;2075;51.062;6.920;2023-03-04T07:47:00;94554.16;;;-144.48;97.49
4123;BME280;2075;51.062;6.920;2023-03-04T07:49:46;94604.94;;;-144.48;97.02
4123;BME280;2075;51.062;6.920;2023-03-04T07:52:31;94586.66;;;-144.48;97.39
4123;BME280;2075;51.062;6.920;2023-03-04T07:55:17;94631.34;;;-144.48;96.93
4123;BME280;2075;51.062;6.920;2023-03-04T07:58:02;94586.66;;;-144.48;97.20
4123;BME280;2075;51.062;6.920;2023-03-04T08:00:49;94584.63;;;-144.48;97.00
4123;BME280;2075;51.062;6.920;2023-03-04T08:03:34;94615.09;;;-144.48;96.25
4123;BME280;2075;51.062;6.920;2023-03-04T08:06:20;94588.69;;;-144.48;96.27
4123;BME280;2075;51.062;6.920;2023-03-04T08:09:07;94611.03;;;-144.48;96.71
4123;BME280;2075;51.062;6.920;2023-03-04T08:11:53;94602.91;;;-144.48;96.38
4123;BME280;2075;51.062;6.920;2023-03-04T08:14:38;94633.38;;;-144.48;96.58
4123;BME280;2075;51.062;6.920;2023-03-04T08:17:25;94604.94;;;-144.48;96.86
4123;BME280;2075;51.062;6.920;2023-03-04T08:20:12;94584.63;;;-144.48;96.89
4123;BME280;2075;51.062;6.920;2023-03-04T08:22:57;94609.00;;;-144.48;97.06
4123;BME280;2075;51.062;6.920;2023-03-04T08:25:43;94515.53;;;-144.48;98.11
4123;BME280;2075;51.062;6.920;2023-03-04T08:28:29;94501.31;;;-144.48;98.98
4123;BME280;2075;51.062;6.920;2023-03-04T08:31:16;94432.25;;;-144.48;99.43
4123;BME280;2075;51.062;6.920;2023-03-04T08:34:03;94391.59;;;-144.48;100.00
4123;BME280;2075;51.062;6.920;2023-03-04T08:36:50;94330.66;;;-144.48;100.00
4123;BME280;2075;51.062;6.920;2023-03-04T08:39:35;94353.00;;;-144.48;100.00
4123;BME280;2075;51.062;6.920;2023-03-04T08:42:22;94442.41;;;-144.48;100.00
4123;BME280;2075;51.062;6.920;2023-03-04T08:45:09;94253.44;;;-144.48;100.00
4123;BME280;2075;51.062;6.920;2023-03-04T08:47:54;94275.78;;;-144.48;100.00
4123;BME280;2075;51.062;6.920;2023-03-04T08:50:42;94314.41;;;-144.48;99.90
4123;BME280;2075;51.062;6.920;2023-03-04T08:53:27;94344.88;;;-144.48;99.20
4123;BME280;2075;51.062;6.920;2023-03-04T08:56:13;94438.34;;;-144.48;96.97
4123;BME280;2075;51.062;6.920;2023-03-04T08:59:00;94513.50;;;-144.48;95.31
4123;BME280;2075;51.062;6.920;2023-03-04T09:01:45;94481.00;;;-144.48;93.05
4123;BME280;2075;51.062;6.920;2023-03-04T09:04:31;94562.28;;;-144.48;91.54
4123;BME280;2075;51.062;6.920;2023-03-04T09:07:17;94493.19;;;-144.48;87.68
4123;BME280;2075;51.062;6.920;2023-03-04T09:10:04;94627.28;;;-144.48;86.15
4123;BME280;2075;51.062;6.920;2023-03-04T09:12:50;94541.94;;;-144.48;85.92
4123;BME280;2075;51.062;6.920;2023-03-04T09:15:36;94592.75;;;-144.48;85.65
4123;BME280;2075;51.062;6.920;2023-03-04T09:18:22;94619.16;;;-144.48;87.34
4123;BME280;2075;51.062;6.920;2023-03-04T09:21:08;94556.19;;;-144.48;89.50
4123;BME280;2075;51.062;6.920;2023-03-04T09:23:55;94586.66;;;-144.48;87.79
4123;BME280;2075;51.062;6.920;2023-03-04T09:26:41;94586.66;;;-144.48;90.16
4123;BME280;2075;51.062;6.920;2023-03-04T09:29:26;94560.25;;;-144.48;90.76
4123;BME280;2075;51.062;6.920;2023-03-04T09:32:11;94511.47;;;-144.48;90.22
4123;BME280;2075;51.062;6.920;2023-03-04T09:34:58;94460.69;;;-144.48;90.70
4123;BME280;2075;51.062;6.920;2023-03-04T09:37:43;94562.28;;;-144.48;91.70
4123;BME280;2075;51.062;6.920;2023-03-04T09:40:34;94529.75;;;-144.48;93.53
4123;BME280;2075;51.062;6.920;2023-03-04T09:43:24;94531.78;;;-144.48;93.23
4123;BME280;2075;51.062;6.920;2023-03-04T09:46:15;94513.50;;;-144.48;96.35
4123;BME280;2075;51.062;6.920;2023-03-04T09:49:01;94204.69;;;-144.48;100.00
4123;BME280;2075;51.062;6.920;2023-03-04T09:51:52;94253.44;;;-144.48;99.45
4123;BME280;2075;51.062;6.920;2023-03-04T09:54:51;94336.75;;;-144.48;95.70
4123;BME280;2075;51.062;6.920;2023-03-04T09:57:46;94444.44;;;-144.48;92.55
4123;BME280;2075;51.062;6.920;2023-03-04T10:00:38;94560.25;;;-144.48;89.85
4123;BME280;2075;51.062;6.920;2023-03-04T10:03:27;94588.69;;;-144.48;89.34
4123;BME280;2075;51.062;6.920;2023-03-04T10:06:19;94570.41;;;-144.48;89.71
4123;BME280;2075;51.062;6.920;2023-03-04T10:09:11;94576.50;;;-144.48;91.59
4123;BME280;2075;51.062;6.920;2023-03-04T10:12:01;94505.38;;;-144.48;93.79
4123;BME280;2075;51.062;6.920;2023-03-04T10:14:51;94326.59;;;-144.48;97.23
4123;BME280;2075;51.062;6.920;2023-03-04T10:17:39;94017.78;;;-144.48;100.00
4123;BME280;2075;51.062;6.920;2023-03-04T10:20:30;94099.03;;;-144.48;99.21
4123;BME280;2075;51.062;6.920;2023-03-04T10:23:21;94186.41;;;-144.48;97.61
4123;BME280;2075;51.062;6.920;2023-03-04T10:26:13;94188.44;;;-144.48;96.16
4123;BME280;2075;51.062;6.920;2023-03-04T10:28:58;94369.25;;;-144.48;90.73
4123;BME280;2075;51.062;6.920;2023-03-04T10:31:48;94432.25;;;-144.48;86.77
4123;BME280;2075;51.062;6.920;2023-03-04T10:34:33;94533.81;;;-144.48;86.84
4123;BME280;2075;51.062;6.920;2023-03-04T10:37:19;94468.81;;;-144.48;90.92
4123;BME280;2075;51.062;6.920;2023-03-04T10:40:17;94355.03;;;-144.48;94.52
4123;BME280;2075;51.062;6.920;2023-03-04T10:43:02;94229.06;;;-144.48;97.17
4123;BME280;2075;51.062;6.920;2023-03-04T10:45:54;94283.91;;;-144.48;96.48
4123;BME280;2075;51.062;6.920;2023-03-04T10:48:42;94322.53;;;-144.48;93.67
4123;BME280;2075;51.062;6.920;2023-03-04T10:51:28;94363.16;;;-144.48;90.79
4123;BME280;2075;51.062;6.920;2023-03-04T10:54:26;94452.56;;;-144.48;86.06
4123;BME280;2075;51.062;6.920;2023-03-04T10:57:15;94521.63;;;-144.48;85.85
4123;BME280;2075;51.062;6.920;2023-03-04T11:00:03;94493.19;;;-144.48;85.88
4123;BME280;2075;51.062;6.920;2023-03-04T11:03:18;94470.84;;;-144.48;84.88
4123;BME280;2075;51.062;6.920;2023-03-04T11:06:09;94324.56;;;-144.48;79.58
4123;BME280;2075;51.062;6.920;2023-03-04T11:08:57;94438.34;;;-144.48;75.57
4123;BME280;2075;51.062;6.920;2023-03-04T11:11:43;94458.66;;;-144.48;75.62
4123;BME280;2075;51.062;6.920;2023-03-04T11:14:34;94444.44;;;-144.48;76.17
4123;BME280;2075;51.062;6.920;2023-03-04T11:17:22;94464.75;;;-144.48;75.89
4123;BME280;2075;51.062;6.920;2023-03-04T11:20:13;94483.03;;;-144.48;77.89
4123;BME280;2075;51.062;6.920;2023-03-04T11:23:04;94533.81;;;-144.48;80.73
4123;BME280;2075;51.062;6.920;2023-03-04T11:25:54;94556.19;;;-144.48;82.26
4123;BME280;2075;51.062;6.920;2023-03-04T11:28:46;94509.44;;;-144.48;82.29
4123;BME280;2075;51.062;6.920;2023-03-04T11:31:38;94556.19;;;-144.48;82.86
4123;BME280;2075;51.062;6.920;2023-03-04T11:34:32;94529.75;;;-144.48;82.76
4123;BME280;2075;51.062;6.920;2023-03-04T11:37:26;94548.06;;;-144.48;81.33
4123;BME280;2075;51.062;6.920;2023-03-04T11:40:17;94541.94;;;-144.48;79.86
4123;BME280;2075;51.062;6.920;2023-03-04T11:43:13;94501.31;;;-144.48;80.36
4123;BME280;2075;51.062;6.920;2023-03-04T11:46:18;94574.47;;;-144.48;81.92
4123;BME280;2075;51.062;6.920;2023-03-04T11:49:45;94611.03;;;-144.48;86.21
4123;BME280;2075;51.062;6.920;2023-03-04T11:55:47;94572.44;;;-144.48;88.51
4123;BME280;2075;51.062;6.920;2023-03-04T11:58:54;94570.41;;;-144.48;87.29
4123;BME280;2075;51.062;6.920;2023-03-04T12:01:52;94485.06;;;-144.48;84.65
4123;BME280;2075;51.062;6.920;2023-03-04T12:04:51;94493.19;;;-144.48;79.07
4123;BME280;2075;51.062;6.920;2023-03-04T12:07:51;94493.19;;;-144.48;77.23
4123;BME280;2075;51.062;6.920;2023-03-04T12:10:41;94505.38;;;-144.48;77.29
4123;BME280;2075;51.062;6.920;2023-03-04T12:13:41;94541.94;;;-144.48;79.48
4123;BME280;2075;51.062;6.920;2023-03-04T12:16:51;94330.66;;;-144.48;81.18
4123;BME280;2075;51.062;6.920;2023-03-04T12:19:49;94566.34;;;-144.48;81.38
4123;BME280;2075;51.062;6.920;2023-03-04T12:22:42;94537.88;;;-144.48;80.49
4123;BME280;2075;51.062;6.920;2023-03-04T12:25:48;94485.06;;;-144.48;78.83
4123;BME280;2075;51.062;6.920;2023-03-04T12:28:46;94491.16;;;-144.48;76.17
4123;BME280;2075;51.062;6.920;2023-03-04T12:31:37;94436.31;;;-144.48;77.29
4123;BME280;2075;51.062;6.920;2023-03-04T12:34:31;94505.38;;;-144.48;76.83
4123;BME280;2075;51.062;6.920;2023-03-04T12:37:38;94537.88;;;-144.48;78.94
4123;BME280;2075;51.062;6.920;2023-03-04T12:40:31;94535.84;;;-144.48;79.13
4123;BME280;2075;51.062;6.920;2023-03-04T12:43:29;94525.69;;;-144.48;78.89
4123;BME280;2075;51.062;6.920;2023-03-04T12:46:35;94541.94;;;-144.48;78.10
4123;BME280;2075;51.062;6.920;2023-03-04T12:49:44;94527.72;;;-144.48;78.44
4123;BME280;2075;51.062;6.920;2023-03-04T12:52:40;94558.22;;;-144.48;79.21
4123;BME280;2075;51.062;6.920;2023-03-04T12:55:34;94602.91;;;-144.48;81.94
4123;BME280;2075;51.062;6.920;2023-03-04T12:58:22;94635.41;;;-144.48;84.57
4123;BME280;2075;51.062;6.920;2023-03-04T13:01:15;94456.63;;;-144.48;85.42
4123;BME280;2075;51.062;6.920;2023-03-04T13:04:08;94797.97;;;-144.48;84.37
4123;BME280;2075;51.062;6.920;2023-03-04T13:07:07;94554.16;;;-144.48;83.04
4123;BME280;2075;51.062;6.920;2023-03-04T13:09:58;94537.88;;;-144.48;81.74
4123;BME280;2075;51.062;6.920;2023-03-04T13:12:48;94513.50;;;-144.48;80.14
4123;BME280;2075;51.062;6.920;2023-03-04T13:15:35;94509.44;;;-144.48;80.49
4123;BME280;2075;51.062;6.920;2023-03-04T13:18:31;94596.81;;;-144.48;82.31
4123;BME280;2075;51.062;6.920;2023-03-04T13:21:22;94592.75;;;-144.48;83.42
4123;BME280;2075;51.062;6.920;2023-03-04T13:28:04;94544.00;;;-144.48;81.36
4123;BME280;2075;51.062;6.920;2023-03-04T13:31:12;94629.31;;;-144.48;82.94
4123;BME280;2075;51.062;6.920;2023-03-04T13:34:00;94560.25;;;-144.48;83.20
4123;BME280;2075;51.062;6.920;2023-03-04T13:36:56;94564.31;;;-144.48;83.60
4123;BME280;2075;51.062;6.920;2023-03-04T13:39:42;94554.16;;;-144.48;84.55
4123;BME280;2075;51.062;6.920;2023-03-04T13:42:38;94568.38;;;-144.48;86.15
4123;BME280;2075;51.062;6.920;2023-03-04T13:45:30;94562.28;;;-144.48;86.57
4123;BME280;2075;51.062;6.920;2023-03-04T13:48:24;94546.03;;;-144.48;88.16
4123;BME280;2075;51.062;6.920;2023-03-04T13:51:13;94544.00;;;-144.48;88.84
4123;BME280;2075;51.062;6.920;2023-03-04T13:54:19;94499.28;;;-144.48;90.96
4123;BME280;2075;51.062;6.920;2023-03-04T13:57:15;94499.28;;;-144.48;92.94
4123;BME280;2075;51.062;6.920;2023-03-04T14:00:01;94385.50;;;-144.48;95.32
4123;BME280;2075;51.062;6.920;2023-03-04T14:02:52;94395.66;;;-144.48;94.60
4123;BME280;2075;51.062;6.920;2023-03-04T14:05:38;94420.03;;;-144.48;94.01
4123;BME280;2075;51.062;6.920;2023-03-04T14:08:24;94407.84;;;-144.48;93.97
4123;BME280;2075;51.062;6.920;2023-03-04T14:11:13;94452.56;;;-144.48;94.71
4123;BME280;2075;51.062;6.920;2023-03-04T14:14:03;94422.06;;;-144.48;94.28
4123;BME280;2075;51.062;6.920;2023-03-04T14:16:51;94383.47;;;-144.48;95.13
4123;BME280;2075;51.062;6.920;2023-03-04T14:19:42;94322.53;;;-144.48;95.12
4123;BME280;2075;51.062;6.920;2023-03-04T14:22:30;94269.69;;;-144.48;95.32
4123;BME280;2075;51.062;6.920;2023-03-04T14:25:21;94298.16;;;-144.48;93.56
4123;BME280;2075;51.062;6.920;2023-03-04T14:28:12;94346.91;;;-144.48;92.12
4123;BME280;2075;51.062;6.920;2023-03-04T14:30:59;94359.09;;;-144.48;92.37
4123;BME280;2075;51.062;6.920;2023-03-04T14:33:46;94371.28;;;-144.48;91.42
4123;BME280;2075;51.062;6.920;2023-03-04T14:36:34;94334.72;;;-144.48;91.29
4123;BME280;2075;51.062;6.920;2023-03-04T14:39:29;94415.97;;;-144.48;91.71
4123;BME280;2075;51.062;6.920;2023-03-04T14:42:16;94420.03;;;-144.48;91.17
4123;BME280;2075;51.062;6.920;2023-03-04T14:45:08;94409.88;;;-144.48;91.26
4123;BME280;2075;51.062;6.920;2023-03-04T14:47:57;94407.84;;;-144.48;90.55
4123;BME280;2075;51.062;6.920;2023-03-04T14:50:47;94448.50;;;-144.48;90.68
4123;BME280;2075;51.062;6.920;2023-03-04T14:53:32;94415.97;;;-144.48;91.00